Time;durP1;ratioP1;P1;durP2;ratioP2;P2;SDS_P1;SDS_P2;PMS_P1;PMS_P2;Temp;Humidity;BMP_temperature;BMP_pressure;BME280_temperature;BME280_humidity;BME280_pressure;Samples;Min_cycle;Max_cycle;Signal;HPM_P1;HPM_P2
2023/10/03 00:01:38;;;;;;;;;;;;;;;20.46;59.82;99386.34;10331575;28;1009;-71
2023/10/03 00:06:34;;;;;;;;;;;;;;;20.46;59.85;99381.94;10330805;28;794;-71
2023/10/03 00:11:30;;;;;;;;;;;;;;;20.46;59.66;99366.03;10330059;28;809;-71
2023/10/03 00:16:26;;;;;;;;;;;;;;;20.45;59.70;99356.38;10330557;28;1886;-71
2023/10/03 00:21:22;;;;;;;;;;;;;;;20.45;59.72;99351.09;10330206;28;882;-71
2023/10/03 00:26:19;;;;;;;;;;;;;;;20.45;59.46;99353.72;10330719;28;849;-71
2023/10/03 00:31:15;;;;;;;;;;;;;;;20.44;59.54;99341.44;10330527;28;1359;-71
2023/10/03 00:36:12;;;;;;;;;;;;;;;20.44;59.37;99338.81;10329577;28;1910;-71
2023/10/03 00:41:08;;;;;;;;;;;;;;;20.45;59.57;99331.72;10329511;28;909;-71
2023/10/03 00:46:04;;;;;;;;;;;;;;;20.45;59.52;99329.06;10330574;28;872;-71
2023/10/03 00:51:00;;;;;;;;;;;;;;;20.46;59.52;99320.16;10328565;28;944;-71
2023/10/03 00:55:59;;;;;;;;;;;;;;;20.44;59.58;99306.19;10328802;28;1886;-71
2023/10/03 01:00:57;;;;;;;;;;;;;;;20.44;59.60;99295.59;10329071;28;886;-71
2023/10/03 01:05:53;;;;;;;;;;;;;;;20.43;59.45;99275.34;10328499;28;861;-71
2023/10/03 01:10:49;;;;;;;;;;;;;;;20.43;59.66;99278.84;10328901;28;813;-71
2023/10/03 01:15:45;;;;;;;;;;;;;;;20.43;59.48;99280.66;10328080;28;818;-71
2023/10/03 01:20:41;;;;;;;;;;;;;;;20.44;59.59;99271.78;10327759;28;1898;-71
2023/10/03 01:25:42;;;;;;;;;;;;;;;20.42;59.64;99263.91;10327037;28;1008;-71
2023/10/03 01:30:40;;;;;;;;;;;;;;;20.42;59.57;99261.28;10328192;28;1128;-70
2023/10/03 01:35:36;;;;;;;;;;;;;;;20.42;59.54;99253.31;10327363;28;850;-71
2023/10/03 01:40:32;;;;;;;;;;;;;;;20.41;59.60;99246.34;10327040;28;1926;-71
2023/10/03 01:45:28;;;;;;;;;;;;;;;20.42;59.48;99239.25;10326908;28;948;-71
2023/10/03 01:50:24;;;;;;;;;;;;;;;20.42;59.71;99239.25;10326725;28;842;-71
2023/10/03 01:55:20;;;;;;;;;;;;;;;20.41;59.59;99211.94;10326158;28;974;-71
2023/10/03 02:00:26;;;;;;;;;;;;;;;20.41;59.59;99208.41;10326858;28;1953;-71
2023/10/03 02:05:23;;;;;;;;;;;;;;;20.40;59.50;99186.38;10326289;28;849;-71
2023/10/03 02:10:19;;;;;;;;;;;;;;;20.41;59.55;99195.19;10325563;28;854;-71
2023/10/03 02:15:15;;;;;;;;;;;;;;;20.40;59.65;99191.69;10325472;28;1040;-71
2023/10/03 02:20:16;;;;;;;;;;;;;;;20.40;59.53;99161.72;10325188;28;1898;-71
2023/10/03 02:25:12;;;;;;;;;;;;;;;20.39;59.53;99158.22;10325108;28;890;-71
2023/10/03 02:30:11;;;;;;;;;;;;;;;20.39;59.57;99158.22;10325640;28;822;-71
2023/10/03 02:35:08;;;;;;;;;;;;;;;20.39;59.55;99149.44;10326207;28;809;-71
2023/10/03 02:40:07;;;;;;;;;;;;;;;20.38;59.56;99142.44;10325921;28;1917;-71
2023/10/03 02:45:03;;;;;;;;;;;;;;;20.38;59.60;99097.44;10325352;28;766;-71
2023/10/03 02:49:59;;;;;;;;;;;;;;;20.37;59.39;99091.31;10325281;28;902;-71
2023/10/03 02:54:55;;;;;;;;;;;;;;;20.39;59.48;99096.50;10325724;28;806;-71
2023/10/03 02:59:51;;;;;;;;;;;;;;;20.38;59.62;99094.78;10325095;28;1975;-71
2023/10/03 03:04:47;;;;;;;;;;;;;;;20.37;59.41;99080.72;10324874;28;939;-71
2023/10/03 03:09:44;;;;;;;;;;;;;;;20.36;59.35;99074.56;10324843;28;797;-71
2023/10/03 03:14:39;;;;;;;;;;;;;;;20.37;59.57;99064.84;10324693;28;903;-71
2023/10/03 03:19:36;;;;;;;;;;;;;;;20.36;59.46;99058.69;10324582;28;1963;-71
2023/10/03 03:24:34;;;;;;;;;;;;;;;20.36;59.47;99063.16;10330991;28;777;-71
2023/10/03 03:29:35;;;;;;;;;;;;;;;20.35;59.33;99059.63;10332423;28;947;-71
2023/10/03 03:34:31;;;;;;;;;;;;;;;20.36;59.47;99057.84;10332367;28;1362;-71
2023/10/03 03:39:27;;;;;;;;;;;;;;;20.36;59.38;99042.81;10331762;28;1985;-71
2023/10/03 03:44:25;;;;;;;;;;;;;;;20.36;59.44;99044.63;10331595;28;1009;-71
2023/10/03 03:49:23;;;;;;;;;;;;;;;20.35;59.52;99042.91;10331434;28;883;-71
2023/10/03 03:54:19;;;;;;;;;;;;;;;20.35;59.32;99040.25;10331785;28;873;-71
2023/10/03 03:59:16;;;;;;;;;;;;;;;20.35;59.36;99035.81;10332183;28;1898;-71
2023/10/03 04:04:12;;;;;;;;;;;;;;;20.34;59.46;99034.13;10331511;28;845;-71
2023/10/03 04:09:08;;;;;;;;;;;;;;;20.35;59.46;99045.53;10331308;28;918;-72
2023/10/03 04:14:05;;;;;;;;;;;;;;;20.35;59.33;99032.31;10331534;28;966;-71
2023/10/03 04:19:01;;;;;;;;;;;;;;;20.34;59.30;99038.56;10330966;28;1967;-71
2023/10/03 04:23:59;;;;;;;;;;;;;;;20.35;59.42;99050.84;10330301;28;864;-71
2023/10/03 04:28:55;;;;;;;;;;;;;;;20.33;59.18;99043.03;10330035;28;910;-71
2023/10/03 04:33:51;;;;;;;;;;;;;;;20.34;59.29;99051.81;10329446;28;1734;-71
2023/10/03 04:38:46;;;;;;;;;;;;;;;20.33;59.27;99050.97;10329615;28;1971;-71
2023/10/03 04:43:42;;;;;;;;;;;;;;;20.33;59.30;99048.31;10328868;28;956;-71
2023/10/03 04:48:38;;;;;;;;;;;;;;;20.33;59.33;99058.03;10329297;28;779;-71
2023/10/03 04:53:34;;;;;;;;;;;;;;;20.34;59.27;99065.88;10329039;28;981;-71
2023/10/03 04:58:30;;;;;;;;;;;;;;;20.33;59.13;99065.97;10329389;28;1898;-71
2023/10/03 05:03:26;;;;;;;;;;;;;;;20.33;59.32;99068.59;10329236;28;853;-71
2023/10/03 05:08:22;;;;;;;;;;;;;;;20.32;59.25;99061.63;10329061;28;807;-71
2023/10/03 05:13:19;;;;;;;;;;;;;;;20.30;59.21;99061.75;10328394;28;790;-71
2023/10/03 05:18:15;;;;;;;;;;;;;;;20.32;59.19;99070.41;10328623;28;1914;-71
2023/10/03 05:23:14;;;;;;;;;;;;;;;20.31;59.27;99079.31;10327207;28;1244;-72
2023/10/03 05:28:13;;;;;;;;;;;;;;;20.33;58.97;99098.59;10327583;28;984;-71
2023/10/03 05:33:09;;;;;;;;;;;;;;;20.32;59.20;99101.34;10327600;28;1121;-72
2023/10/03 05:38:06;;;;;;;;;;;;;;;20.32;59.28;99103.97;10327122;28;1922;-71
2023/10/03 05:43:04;;;;;;;;;;;;;;;20.32;59.24;99102.16;10326783;28;977;-71
2023/10/03 05:48:00;;;;;;;;;;;;;;;20.32;59.31;99107.47;10326880;28;853;-71
2023/10/03 05:52:57;;;;;;;;;;;;;;;20.33;59.24;99110.97;10326646;28;1070;-71
2023/10/03 05:57:53;;;;;;;;;;;;;;;20.31;59.18;99124.31;10327026;28;1887;-71
2023/10/03 06:02:50;;;;;;;;;;;;;;;20.32;59.14;99126.00;10326359;28;802;-75
2023/10/03 06:07:45;;;;;;;;;;;;;;;20.33;58.77;99134.78;10326596;28;917;-71
2023/10/03 06:12:41;;;;;;;;;;;;;;;20.32;58.96;99131.28;10326712;28;814;-71
2023/10/03 06:17:37;;;;;;;;;;;;;;;20.32;58.63;99138.38;10325843;28;1968;-72
2023/10/03 06:22:33;;;;;;;;;;;;;;;20.34;58.78;99136.50;10325887;28;967;-72
2023/10/03 06:27:30;;;;;;;;;;;;;;;20.32;58.74;99133.94;10326303;28;904;-73
2023/10/03 06:32:26;;;;;;;;;;;;;;;20.34;59.31;99147.94;10325928;28;1141;-71
2023/10/03 06:37:23;;;;;;;;;;;;;;;20.34;59.11;99140.00;10326070;28;1951;-71
2023/10/03 06:42:19;;;;;;;;;;;;;;;20.35;59.12;99152.25;10326566;28;874;-72
2023/10/03 06:47:15;;;;;;;;;;;;;;;20.35;59.19;99162.84;10324748;28;944;-72
2023/10/03 06:52:11;;;;;;;;;;;;;;;20.35;59.25;99170.78;10325239;28;807;-72
2023/10/03 06:57:07;;;;;;;;;;;;;;;20.36;59.42;99177.81;10329287;28;1949;-71
2023/10/03 07:02:04;;;;;;;;;;;;;;;20.35;59.46;99173.44;10332867;28;834;-71
2023/10/03 07:07:00;;;;;;;;;;;;;;;20.34;59.38;99155.88;10333253;28;834;-72
2023/10/03 07:11:56;;;;;;;;;;;;;;;20.34;59.23;99195.56;10332590;28;1015;-71
2023/10/03 07:16:51;;;;;;;;;;;;;;;20.34;59.38;99203.50;10333339;28;1897;-71
2023/10/03 07:21:47;;;;;;;;;;;;;;;20.33;59.48;99185.94;10332855;28;892;-71
2023/10/03 07:26:43;;;;;;;;;;;;;;;20.33;59.44;99223.00;10333135;28;853;-73
2023/10/03 07:31:40;;;;;;;;;;;;;;;20.33;59.64;99246.81;10332839;28;1425;-71
2023/10/03 07:36:37;;;;;;;;;;;;;;;20.34;59.60;99234.44;10331988;28;1910;-71
2023/10/03 07:41:33;;;;;;;;;;;;;;;20.32;59.77;99225.72;10332595;28;849;-71
2023/10/03 07:46:29;;;;;;;;;;;;;;;20.34;59.79;99237.06;10332511;28;826;-71
2023/10/03 07:51:31;;;;;;;;;;;;;;;20.32;59.79;99254.84;10332092;28;874;-70
2023/10/03 07:56:31;;;;;;;;;;;;;;;20.30;60.03;99236.44;10331320;28;1886;-71
2023/10/03 08:01:27;;;;;;;;;;;;;;;20.31;59.79;99232.81;10331133;28;814;-70
2023/10/03 08:06:27;;;;;;;;;;;;;;;20.33;59.72;99241.53;10329587;28;1126;-71
2023/10/03 08:11:28;;;;;;;;;;;;;;;20.30;60.03;99280.53;10329881;28;818;-71
2023/10/03 08:16:24;;;;;;;;;;;;;;;20.30;60.14;99275.25;10330554;28;1957;-71
2023/10/03 08:21:21;;;;;;;;;;;;;;;20.30;59.97;99262.00;10330098;28;754;-71
2023/10/03 08:26:17;;;;;;;;;;;;;;;20.34;59.80;99259.09;10330925;28;813;-71
2023/10/03 08:31:14;;;;;;;;;;;;;;;20.35;59.80;99275.81;10329400;28;1438;-71
2023/10/03 08:36:14;;;;;;;;;;;;;;;20.38;59.95;99291.50;10329709;28;1910;-71
2023/10/03 08:41:11;;;;;;;;;;;;;;;20.39;59.76;99290.59;10330050;28;794;-72
2023/10/03 08:46:09;;;;;;;;;;;;;;;20.43;59.74;99288.59;10329193;28;895;-71
2023/10/03 08:51:05;;;;;;;;;;;;;;;20.43;59.61;99296.53;10329486;28;962;-71
2023/10/03 08:56:03;;;;;;;;;;;;;;;20.41;59.68;99306.34;10328834;28;951;-71
2023/10/03 09:00:59;;;;;;;;;;;;;;;20.40;59.62;99312.59;10329118;28;1894;-71
2023/10/03 09:05:57;;;;;;;;;;;;;;;20.40;59.61;99313.44;10328327;28;945;-71
2023/10/03 09:10:55;;;;;;;;;;;;;;;20.41;59.77;99319.59;10328373;28;806;-70
2023/10/03 09:15:59;;;;;;;;;;;;;;;20.39;59.89;99342.69;10328442;28;1360;-71
2023/10/03 09:20:59;;;;;;;;;;;;;;;20.36;59.94;99347.22;10328236;28;1894;-71
2023/10/03 09:25:57;;;;;;;;;;;;;;;20.40;59.81;99315.25;10327543;28;848;-71
2023/10/03 09:30:53;;;;;;;;;;;;;;;20.41;59.80;99306.34;10327186;28;1148;-70
2023/10/03 09:35:49;;;;;;;;;;;;;;;20.40;59.68;99302.88;10327198;28;846;-71
2023/10/03 09:40:47;;;;;;;;;;;;;;;20.41;59.72;99324.88;10326950;28;1973;-74
2023/10/03 09:45:46;;;;;;;;;;;;;;;20.43;59.67;99330.94;10326696;28;880;-73
2023/10/03 09:50:51;;;;;;;;;;;;;;;20.44;59.63;99333.50;10326587;28;965;-71
2023/10/03 09:55:49;;;;;;;;;;;;;;;20.44;59.73;99336.16;10326406;28;883;-72
2023/10/03 10:00:51;;;;;;;;;;;;;;;20.44;59.78;99348.56;10326739;28;1961;-72
2023/10/03 10:05:49;;;;;;;;;;;;;;;20.42;59.92;99359.22;10325840;28;1189;-74
2023/10/03 10:10:47;;;;;;;;;;;;;;;20.42;59.88;99364.50;10326016;28;762;-75
2023/10/03 10:15:42;;;;;;;;;;;;;;;20.42;59.90;99363.66;10326288;28;908;-75
2023/10/03 10:20:38;;;;;;;;;;;;;;;20.40;60.04;99354.97;10325057;28;1951;-74
2023/10/03 10:25:41;;;;;;;;;;;;;;;20.38;59.96;99355.03;10311629;28;1708;-72
2023/10/03 10:30:37;;;;;;;;;;;;;;;20.38;59.98;99365.63;10324994;28;1381;-71
2023/10/03 10:35:34;;;;;;;;;;;;;;;20.38;59.95;99368.28;10325409;28;1046;-71
2023/10/03 10:40:35;;;;;;;;;;;;;;;20.39;59.78;99350.63;10325187;28;1902;-72
2023/10/03 10:45:42;;;;;;;;;;;;;;;20.42;59.88;99345.13;10325071;28;977;-71
2023/10/03 10:50:38;;;;;;;;;;;;;;;20.43;59.86;99342.38;10325905;28;837;-71
2023/10/03 10:55:34;;;;;;;;;;;;;;;20.43;59.86;99341.53;10325224;28;816;-70
2023/10/03 11:00:33;;;;;;;;;;;;;;;20.42;59.99;99337.19;10324025;28;1949;-71
2023/10/03 11:05:30;;;;;;;;;;;;;;;20.39;59.92;99332.09;10324712;28;1649;-71
2023/10/03 11:10:26;;;;;;;;;;;;;;;20.36;60.13;99333.13;10324600;28;878;-71
2023/10/03 11:15:22;;;;;;;;;;;;;;;20.36;60.10;99364.88;10324800;28;905;-71
2023/10/03 11:20:18;;;;;;;;;;;;;;;20.34;60.18;99401.19;10324867;28;1953;-71
2023/10/03 11:25:14;;;;;;;;;;;;;;;20.34;60.09;99415.25;10324360;28;762;-71
2023/10/03 11:30:09;;;;;;;;;;;;;;;20.31;60.17;99428.69;10324059;28;754;-72
2023/10/03 11:35:05;;;;;;;;;;;;;;;20.31;60.25;99430.47;10324854;28;1192;-71
2023/10/03 11:40:01;;;;;;;;;;;;;;;20.29;60.31;99400.59;10323960;28;1977;-71
2023/10/03 11:44:57;;;;;;;;;;;;;;;20.34;60.08;99391.44;10328909;28;929;-72
2023/10/03 11:49:56;;;;;;;;;;;;;;;20.32;60.24;99416.28;10331721;28;813;-71
2023/10/03 11:54:52;;;;;;;;;;;;;;;20.30;60.18;99419.06;10331159;28;877;-71
2023/10/03 11:59:47;;;;;;;;;;;;;;;20.29;60.10;99419.13;10330764;28;1894;-71
2023/10/03 12:04:44;;;;;;;;;;;;;;;20.30;60.18;99432.28;10331231;28;813;-72
2023/10/03 12:09:40;;;;;;;;;;;;;;;20.32;60.11;99448.06;10331110;28;1014;-71
2023/10/03 12:14:36;;;;;;;;;;;;;;;20.35;60.03;99458.47;10330890;28;876;-71
2023/10/03 12:19:31;;;;;;;;;;;;;;;20.35;59.99;99453.16;10330388;28;1894;-71
2023/10/03 12:24:27;;;;;;;;;;;;;;;20.33;60.21;99458.56;10329959;28;888;-71
2023/10/03 12:29:31;;;;;;;;;;;;;;;20.33;60.15;99471.81;10329699;28;918;-73
2023/10/03 12:34:29;;;;;;;;;;;;;;;20.31;60.22;99512.53;10331101;28;1180;-71
2023/10/03 12:39:27;;;;;;;;;;;;;;;20.30;60.38;99537.28;10330065;28;1914;-71
2023/10/03 12:44:23;;;;;;;;;;;;;;;20.27;60.23;99535.66;10329889;28;817;-71
2023/10/03 12:49:21;;;;;;;;;;;;;;;20.27;60.23;99548.03;10329756;28;876;-72
2023/10/03 12:54:18;;;;;;;;;;;;;;;20.27;60.27;99556.84;10328537;28;945;-72
2023/10/03 12:59:13;;;;;;;;;;;;;;;20.22;60.51;99540.34;10328648;28;1893;-66
2023/10/03 13:04:09;;;;;;;;;;;;;;;20.24;60.25;99549.06;10329152;28;909;-71
2023/10/03 13:09:05;;;;;;;;;;;;;;;20.25;60.25;99563.16;10328381;28;913;-71
2023/10/03 13:14:04;;;;;;;;;;;;;;;20.24;60.21;99567.59;10328205;28;855;-71
2023/10/03 13:19:01;;;;;;;;;;;;;;;20.24;60.46;99582.63;10327877;28;1902;-71
2023/10/03 13:23:57;;;;;;;;;;;;;;;20.23;60.42;99602.13;10327676;28;930;-71
2023/10/03 13:28:53;;;;;;;;;;;;;;;20.24;60.32;99604.66;10327466;28;870;-71
2023/10/03 13:33:49;;;;;;;;;;;;;;;20.23;60.35;99608.25;10327423;28;1593;-69
2023/10/03 13:38:45;;;;;;;;;;;;;;;20.22;60.50;99622.41;10327043;28;1983;-71
2023/10/03 13:43:41;;;;;;;;;;;;;;;20.20;60.46;99628.72;10327730;28;786;-72
2023/10/03 13:48:37;;;;;;;;;;;;;;;20.20;60.43;99655.19;10326715;28;898;-71
2023/10/03 13:53:33;;;;;;;;;;;;;;;20.22;60.23;99659.47;10326060;28;829;-71
2023/10/03 13:58:29;;;;;;;;;;;;;;;20.26;60.13;99676.88;10326425;28;1941;-72
2023/10/03 14:03:27;;;;;;;;;;;;;;;20.27;60.18;99670.66;10327751;28;882;-71
2023/10/03 14:08:23;;;;;;;;;;;;;;;20.37;59.85;99692.19;10326251;28;775;-71
2023/10/03 14:13:18;;;;;;;;;;;;;;;20.40;59.68;99701.75;10326823;28;933;-71
2023/10/03 14:18:14;;;;;;;;;;;;;;;20.31;60.14;99711.06;10326854;28;1893;-71
2023/10/03 14:23:11;;;;;;;;;;;;;;;20.27;60.17;99734.16;10325337;28;976;-71
2023/10/03 14:28:08;;;;;;;;;;;;;;;20.24;60.27;99752.03;10325818;28;790;-71
2023/10/03 14:33:08;;;;;;;;;;;;;;;20.30;60.18;99749.03;10325423;28;1323;-71
2023/10/03 14:38:05;;;;;;;;;;;;;;;20.57;59.49;99765.28;10326374;28;1910;-70
2023/10/03 14:43:03;;;;;;;;;;;;;;;20.66;59.36;99769.19;10325398;28;906;-70
2023/10/03 14:47:59;;;;;;;;;;;;;;;20.52;59.72;99776.06;10325318;28;950;-70
2023/10/03 14:52:55;;;;;;;;;;;;;;;20.42;60.06;99784.59;10325968;28;782;-71
2023/10/03 14:57:52;;;;;;;;;;;;;;;20.33;60.14;99789.44;10325131;28;1956;-71
2023/10/03 15:02:48;;;;;;;;;;;;;;;20.27;60.25;99869.16;10325769;28;842;-70
2023/10/03 15:07:43;;;;;;;;;;;;;;;20.19;60.06;99881.94;10325903;28;857;-71
2023/10/03 15:12:39;;;;;;;;;;;;;;;20.17;59.92;99889.09;10324933;28;991;-70
2023/10/03 15:17:37;;;;;;;;;;;;;;;20.17;59.99;99914.72;10327929;28;1957;-70
2023/10/03 15:22:33;;;;;;;;;;;;;;;20.62;59.01;99929.19;10333174;28;808;-71
2023/10/03 15:27:28;;;;;;;;;;;;;;;20.63;59.07;99934.44;10332534;28;931;-71
2023/10/03 15:32:24;;;;;;;;;;;;;;;20.36;59.59;99956.06;10331766;28;1399;-70
2023/10/03 15:37:23;;;;;;;;;;;;;;;20.32;59.82;99964.22;10331472;28;1968;-71
2023/10/03 15:42:20;;;;;;;;;;;;;;;20.25;59.85;99981.34;10332528;28;900;-71
2023/10/03 15:47:16;;;;;;;;;;;;;;;20.23;60.06;99992.03;10332846;28;849;-70
2023/10/03 15:52:12;;;;;;;;;;;;;;;20.23;59.92;100013.19;10331540;28;937;-71
2023/10/03 15:57:10;;;;;;;;;;;;;;;20.23;59.97;100012.34;10332091;28;1949;-71
2023/10/03 16:02:06;;;;;;;;;;;;;;;20.21;60.19;100024.78;10331824;28;846;-70
2023/10/03 16:07:03;;;;;;;;;;;;;;;20.18;60.07;100030.25;10330726;28;1230;-71
2023/10/03 16:11:59;;;;;;;;;;;;;;;20.16;60.21;100040.91;10330874;28;974;-70
2023/10/03 16:16:59;;;;;;;;;;;;;;;20.15;60.21;100036.53;10313223;28;1973;-70
2023/10/03 16:21:55;;;;;;;;;;;;;;;20.14;60.16;100055.97;10330486;28;1395;-70
2023/10/03 16:26:51;;;;;;;;;;;;;;;20.13;60.18;100059.56;10330879;28;774;-66
2023/10/03 16:31:46;;;;;;;;;;;;;;;20.12;60.25;100073.72;10329466;28;1129;-70
2023/10/03 16:36:42;;;;;;;;;;;;;;;20.09;60.27;100093.25;10329881;28;1910;-70
2023/10/03 16:41:40;;;;;;;;;;;;;;;20.10;60.21;100091.47;10329732;28;858;-71
2023/10/03 16:46:36;;;;;;;;;;;;;;;19.99;60.54;100097.28;10330107;28;866;-71
2023/10/03 16:51:33;;;;;;;;;;;;;;;20.02;60.40;100114.81;10330151;28;835;-70
2023/10/03 16:56:29;;;;;;;;;;;;;;;20.09;60.12;100127.66;10329376;28;1893;-71
2023/10/03 17:01:25;;;;;;;;;;;;;;;20.14;60.16;100138.03;10329552;28;826;-71
2023/10/03 17:06:21;;;;;;;;;;;;;;;20.14;60.20;100154.75;10329395;28;918;-71
2023/10/03 17:11:17;;;;;;;;;;;;;;;20.17;60.19;100168.78;10328280;28;784;-71
2023/10/03 17:16:13;;;;;;;;;;;;;;;20.20;60.07;100189.81;10329004;28;873;-71
2023/10/03 17:21:10;;;;;;;;;;;;;;;20.21;60.11;100204.78;10328242;28;1894;-71
2023/10/03 17:26:06;;;;;;;;;;;;;;;20.21;59.99;100213.56;10329253;28;778;-71
2023/10/03 17:31:02;;;;;;;;;;;;;;;20.23;60.08;100229.41;10328138;28;1143;-77
2023/10/03 17:35:57;;;;;;;;;;;;;;;20.24;60.26;100234.59;10327600;28;803;-71
2023/10/03 17:40:53;;;;;;;;;;;;;;;20.25;59.86;100241.63;10327285;28;1963;-71
2023/10/03 17:45:49;;;;;;;;;;;;;;;20.26;60.05;100253.94;10327184;28;869;-71
2023/10/03 17:50:46;;;;;;;;;;;;;;;20.27;60.11;100265.38;10327005;28;790;-71
2023/10/03 17:55:42;;;;;;;;;;;;;;;20.26;59.97;100282.19;10328252;28;829;-71
2023/10/03 18:00:38;;;;;;;;;;;;;;;20.26;60.05;100296.28;10327148;28;1902;-71
2023/10/03 18:05:34;;;;;;;;;;;;;;;20.27;60.27;100297.13;10326603;28;766;-70
2023/10/03 18:10:32;;;;;;;;;;;;;;;20.27;60.17;100307.72;10326679;28;850;-70
2023/10/03 18:15:28;;;;;;;;;;;;;;;20.27;60.11;100313.88;10326792;28;914;-71
2023/10/03 18:20:24;;;;;;;;;;;;;;;20.28;59.99;100314.75;10325972;28;2052;-71
2023/10/03 18:25:20;;;;;;;;;;;;;;;20.26;60.04;100320.13;10326464;28;855;-71
2023/10/03 18:30:17;;;;;;;;;;;;;;;20.27;59.85;100328.91;10325532;28;1160;-71
2023/10/03 18:35:13;;;;;;;;;;;;;;;20.26;60.11;100336.00;10325665;28;969;-71
2023/10/03 18:40:14;;;;;;;;;;;;;;;20.26;59.91;100345.72;10325453;28;1913;-71
2023/10/03 18:45:13;;;;;;;;;;;;;;;20.25;59.75;100347.53;10326161;28;787;-71
2023/10/03 18:50:08;;;;;;;;;;;;;;;20.26;59.98;100364.25;10326180;28;858;-71
2023/10/03 18:55:04;;;;;;;;;;;;;;;20.26;59.56;100358.97;10324802;28;862;-74
2023/10/03 19:00:01;;;;;;;;;;;;;;;20.26;59.56;100369.56;10325389;28;1897;-71
2023/10/03 19:04:58;;;;;;;;;;;;;;;20.25;59.78;100366.06;10325672;28;814;-71
2023/10/03 19:09:54;;;;;;;;;;;;;;;20.25;59.78;100374.00;10325536;28;785;-71
2023/10/03 19:14:50;;;;;;;;;;;;;;;20.26;59.60;100383.66;10325029;28;881;-71
2023/10/03 19:19:49;;;;;;;;;;;;;;;20.26;59.56;100386.28;10325329;28;1894;-71
2023/10/03 19:24:50;;;;;;;;;;;;;;;20.27;59.80;100392.44;10325369;28;845;-72
2023/10/03 19:29:46;;;;;;;;;;;;;;;20.27;59.62;100411.81;10324828;28;858;-71
2023/10/03 19:34:42;;;;;;;;;;;;;;;20.26;59.72;100409.25;10325150;28;1358;-71
2023/10/03 19:39:39;;;;;;;;;;;;;;;20.25;59.54;100416.34;10324569;28;1962;-71
2023/10/03 19:44:35;;;;;;;;;;;;;;;20.23;59.60;100426.13;10324944;28;881;-71
2023/10/03 19:49:31;;;;;;;;;;;;;;;20.23;59.56;100427.94;10324203;28;825;-71
2023/10/03 19:54:27;;;;;;;;;;;;;;;20.20;59.59;100442.16;10324443;28;925;-71
2023/10/03 19:59:23;;;;;;;;;;;;;;;20.18;59.12;100444.00;10324596;28;1973;-71
2023/10/03 20:04:19;;;;;;;;;;;;;;;20.14;58.99;100440.59;10326432;28;815;-71
2023/10/03 20:09:16;;;;;;;;;;;;;;;20.13;58.71;100451.28;10331192;28;814;-71
2023/10/03 20:14:12;;;;;;;;;;;;;;;20.10;58.67;100454.06;10331066;28;785;-72
2023/10/03 20:19:08;;;;;;;;;;;;;;;20.07;58.41;100460.34;10329927;28;1949;-71
2023/10/03 20:24:04;;;;;;;;;;;;;;;20.06;58.12;100463.88;10330407;28;933;-71
2023/10/03 20:29:01;;;;;;;;;;;;;;;20.01;57.86;100470.28;10330950;28;807;-70
2023/10/03 20:33:57;;;;;;;;;;;;;;;19.99;57.97;100467.72;10329791;28;1321;-70
2023/10/03 20:38:54;;;;;;;;;;;;;;;19.94;57.57;100472.34;10330537;28;1921;-71
2023/10/03 20:43:50;;;;;;;;;;;;;;;19.93;57.88;100487.34;10331044;28;850;-71
2023/10/03 20:48:46;;;;;;;;;;;;;;;19.88;58.24;100478.72;10329577;28;758;-71
2023/10/03 20:53:42;;;;;;;;;;;;;;;19.87;57.98;100478.81;10329805;28;886;-71
2023/10/03 20:58:38;;;;;;;;;;;;;;;19.81;58.02;100482.56;10329710;28;2024;-71
2023/10/03 21:03:34;;;;;;;;;;;;;;;19.79;57.90;100488.84;10328434;28;872;-71
2023/10/03 21:08:30;;;;;;;;;;;;;;;19.76;58.33;100492.47;10328790;28;776;-71
2023/10/03 21:13:25;;;;;;;;;;;;;;;19.77;58.54;100498.59;10329303;28;841;-71
2023/10/03 21:18:21;;;;;;;;;;;;;;;19.75;58.35;100497.81;10328836;28;1956;-71
2023/10/03 21:23:17;;;;;;;;;;;;;;;19.70;58.51;100493.56;10328184;28;821;-71
2023/10/03 21:28:13;;;;;;;;;;;;;;;19.69;58.34;100496.25;10327900;28;867;-71
2023/10/03 21:33:10;;;;;;;;;;;;;;;19.69;58.51;100506.84;10328241;28;1466;-70
2023/10/03 21:38:06;;;;;;;;;;;;;;;19.69;58.74;100520.06;10328055;28;2028;-71
2023/10/03 21:43:02;;;;;;;;;;;;;;;19.68;59.17;100524.50;10327287;28;882;-71
2023/10/03 21:47:58;;;;;;;;;;;;;;;19.69;59.18;100517.44;10326588;28;1067;-71
2023/10/03 21:52:54;;;;;;;;;;;;;;;19.66;59.15;100520.16;10327132;28;824;-71
2023/10/03 21:57:50;;;;;;;;;;;;;;;19.65;59.25;100514.00;10326695;28;1964;-71
2023/10/03 22:02:46;;;;;;;;;;;;;;;19.63;59.23;100510.56;10327396;28;881;-71
2023/10/03 22:07:42;;;;;;;;;;;;;;;19.62;59.32;100515.91;10326739;28;817;-71
2023/10/03 22:12:37;;;;;;;;;;;;;;;19.61;59.59;100514.19;10326334;28;821;-71
2023/10/03 22:17:33;;;;;;;;;;;;;;;19.60;59.44;100515.97;10327607;28;1874;-71
2023/10/03 22:22:29;;;;;;;;;;;;;;;19.57;59.36;100518.75;10326018;28;851;-71
2023/10/03 22:27:25;;;;;;;;;;;;;;;19.55;59.45;100517.94;10325269;28;802;-71
2023/10/03 22:32:21;;;;;;;;;;;;;;;19.55;59.59;100525.00;10325382;28;1343;-70
2023/10/03 22:37:17;;;;;;;;;;;;;;;19.55;59.67;100522.38;10326220;28;1923;-71
2023/10/03 22:42:13;;;;;;;;;;;;;;;19.55;59.34;100530.28;10325526;28;870;-71
2023/10/03 22:47:09;;;;;;;;;;;;;;;19.54;59.58;100539.13;10324855;28;1007;-71
2023/10/03 22:52:05;;;;;;;;;;;;;;;19.53;59.65;100533.00;10325439;28;894;-71
2023/10/03 22:57:02;;;;;;;;;;;;;;;19.53;59.64;100537.41;10325393;28;1947;-71
2023/10/03 23:01:58;;;;;;;;;;;;;;;19.51;59.47;100533.97;10325796;28;846;-71
2023/10/03 23:06:53;;;;;;;;;;;;;;;19.49;59.64;100541.94;10326044;28;887;-71
2023/10/03 23:11:49;;;;;;;;;;;;;;;19.47;59.47;100551.75;10325770;28;867;-71
2023/10/03 23:16:45;;;;;;;;;;;;;;;19.47;59.49;100546.44;10325429;28;1965;-71
2023/10/03 23:21:42;;;;;;;;;;;;;;;19.47;59.52;100539.38;10324257;28;802;-71
2023/10/03 23:26:38;;;;;;;;;;;;;;;19.45;59.46;100538.56;10324582;28;883;-71
2023/10/03 23:31:34;;;;;;;;;;;;;;;19.45;59.69;100535.91;10324167;28;1311;-71
2023/10/03 23:36:30;;;;;;;;;;;;;;;19.46;59.60;100536.78;10325489;28;802;-71
2023/10/03 23:41:26;;;;;;;;;;;;;;;19.45;59.43;100541.22;10332538;28;1917;-71
2023/10/03 23:46:22;;;;;;;;;;;;;;;19.42;59.43;100541.31;10332532;28;873;-71
2023/10/03 23:51:18;;;;;;;;;;;;;;;19.43;59.49;100540.41;10331904;28;996;-71
2023/10/03 23:56:16;;;;;;;;;;;;;;;19.43;59.48;100550.13;10331832;28;850;-71
